Lord Nelson — GHJV — position and weather

sailwx.info

Track history (hours):
 
Tides and Currents Weather Stations Pressure Air Temp Water Temp Dewpoint Dewpoint Depression Visibility Wind Speed Wind Dir Waves Ship Positions

Lord Nelson (United Kingdom)

Ship's website: http://www.jst.org.uk/

Last reported at 2016-Sep-26 11:33 UTC. Time now 2016-Sep-26 12:20 UTC.
Position N 50°43' W 001°29'.

Length 54.7 m; beam 9 m; draft 4.1 m.

Type: Sailing vessel. MMSI: 232003690.

Date/timePositionNaut miles runAvg speedWind from/ knotsBaromVisibWave heightAir tempDewpointWater temp
2016-Sep-26 11:33N 50°43' W 001°29'  
2016-Sep-22 12:32N 50°45' W 001°24'22 2.8
2016-Sep-22 04:30N 50°43' W 001°59'0 0.0
2016-Sep-22 03:33N 50°43' W 001°59'0 0.0
2016-Sep-22 00:30N 50°43' W 001°59'0 0.0
2016-Sep-21 23:33N 50°43' W 001°59'0 0.0
2016-Sep-21 22:33N 50°43' W 001°59'0 0.0
2016-Sep-21 19:33N 50°43' W 001°59'0 0.0
2016-Sep-21 16:30N 50°43' W 001°59'3 0.4
2016-Sep-21 09:34N 50°41' W 001°57'3 2.6
2016-Sep-21 08:32N 50°43' W 001°59'0 0.0
2016-Sep-21 05:32N 50°43' W 001°59'0 0.0
2016-Sep-21 03:32N 50°43' W 001°59'0 0.0
2016-Sep-21 02:32N 50°43' W 001°59'0 0.0
2016-Sep-20 17:33N 50°43' W 001°59'0 0.0
2016-Sep-20 14:33N 50°43' W 001°59'0 0.0
2016-Sep-20 13:34N 50°43' W 001°59'0 0.0
2016-Sep-20 10:34N 50°43' W 001°59'6 2.7
2016-Sep-20 08:31N 50°37' W 001°56'0 0.1
2016-Sep-20 07:31N 50°37' W 001°56'0 0.0
2016-Sep-20 06:31N 50°37' W 001°56'0 0.0
2016-Sep-20 02:31N 50°37' W 001°56'0 0.0
2016-Sep-19 23:31N 50°37' W 001°56'0 0.0
2016-Sep-19 19:31N 50°37' W 001°56'4 3.8
2016-Sep-19 18:33N 50°34' W 001°56'38 5.8
2016-Sep-19 12:04N 49°57' W 002°04'34 0.9
2016-Sep-17 21:06N 50°29' W 001°48'3 4.6
2016-Sep-17 20:32N 50°31' W 001°50'5 4.0
2016-Sep-17 19:16N 50°35' W 001°55'8 1.4
2016-Sep-17 13:34N 50°43' W 001°59'0 0.2
2016-Sep-17 12:32N 50°43' W 001°59'0 0.0
2016-Sep-17 10:32N 50°43' W 001°59'0 0.0
2016-Sep-17 09:32N 50°43' W 001°59'0 0.0
2016-Sep-17 08:32N 50°43' W 001°59'0 0.0
2016-Sep-17 07:32N 50°43' W 001°59'0 0.0
2016-Sep-17 05:32N 50°43' W 001°59'0 0.0
2016-Sep-17 04:32N 50°43' W 001°59'0 0.0
2016-Sep-17 00:32N 50°43' W 001°59'0 0.0
2016-Sep-16 17:32N 50°43' W 001°59'0 0.0
2016-Sep-16 15:32N 50°43' W 001°59'0 0.0
2016-Sep-16 12:32N 50°43' W 001°59'  
Track history (hours):
 
Tides and Currents Weather Stations Pressure Air Temp Water Temp Dewpoint Dewpoint Depression Visibility Wind Speed Wind Dir Waves Ship Positions

Lord Nelson (United Kingdom)

Ship's website: http://www.jst.org.uk/

Last reported at 2016-Sep-26 11:33 UTC. Time now 2016-Sep-26 12:20 UTC.
Position N 50°43' W 001°29'.

Length 54.7 m; beam 9 m; draft 4.1 m.

Type: Sailing vessel. MMSI: 232003690.

Date/timePositionNaut miles runAvg speedWind from/ knotsBaromVisibWave heightAir tempDewpointWater temp
2016-Sep-26 11:33N 50°43' W 001°29'  
2016-Sep-22 12:32N 50°45' W 001°24'22 2.8
2016-Sep-22 04:30N 50°43' W 001°59'0 0.0
2016-Sep-22 03:33N 50°43' W 001°59'0 0.0
2016-Sep-22 00:30N 50°43' W 001°59'0 0.0
2016-Sep-21 23:33N 50°43' W 001°59'0 0.0
2016-Sep-21 22:33N 50°43' W 001°59'0 0.0
2016-Sep-21 19:33N 50°43' W 001°59'0 0.0
2016-Sep-21 16:30N 50°43' W 001°59'3 0.4
2016-Sep-21 09:34N 50°41' W 001°57'3 2.6
2016-Sep-21 08:32N 50°43' W 001°59'0 0.0
2016-Sep-21 05:32N 50°43' W 001°59'0 0.0
2016-Sep-21 03:32N 50°43' W 001°59'0 0.0
2016-Sep-21 02:32N 50°43' W 001°59'0 0.0
2016-Sep-20 17:33N 50°43' W 001°59'0 0.0
2016-Sep-20 14:33N 50°43' W 001°59'0 0.0
2016-Sep-20 13:34N 50°43' W 001°59'0 0.0
2016-Sep-20 10:34N 50°43' W 001°59'6 2.7
2016-Sep-20 08:31N 50°37' W 001°56'0 0.1
2016-Sep-20 07:31N 50°37' W 001°56'0 0.0
2016-Sep-20 06:31N 50°37' W 001°56'0 0.0
2016-Sep-20 02:31N 50°37' W 001°56'0 0.0
2016-Sep-19 23:31N 50°37' W 001°56'0 0.0
2016-Sep-19 19:31N 50°37' W 001°56'4 3.8
2016-Sep-19 18:33N 50°34' W 001°56'38 5.8
2016-Sep-19 12:04N 49°57' W 002°04'34 0.9
2016-Sep-17 21:06N 50°29' W 001°48'3 4.6
2016-Sep-17 20:32N 50°31' W 001°50'5 4.0
2016-Sep-17 19:16N 50°35' W 001°55'8 1.4
2016-Sep-17 13:34N 50°43' W 001°59'0 0.2
2016-Sep-17 12:32N 50°43' W 001°59'0 0.0
2016-Sep-17 10:32N 50°43' W 001°59'0 0.0
2016-Sep-17 09:32N 50°43' W 001°59'0 0.0
2016-Sep-17 08:32N 50°43' W 001°59'0 0.0
2016-Sep-17 07:32N 50°43' W 001°59'0 0.0
2016-Sep-17 05:32N 50°43' W 001°59'0 0.0
2016-Sep-17 04:32N 50°43' W 001°59'0 0.0
2016-Sep-17 00:32N 50°43' W 001°59'0 0.0
2016-Sep-16 17:32N 50°43' W 001°59'0 0.0
2016-Sep-16 15:32N 50°43' W 001°59'0 0.0
2016-Sep-16 12:32N 50°43' W 001°59'  

Dump ship's entire track history